Time;durP1;ratioP1;P1;durP2;ratioP2;P2;SDS_P1;SDS_P2;PMS_P1;PMS_P2;Temp;Humidity;BMP_temperature;BMP_pressure;BME280_temperature;BME280_humidity;BME280_pressure;Samples;Min_cycle;Max_cycle;Signal;HPM_P1;HPM_P2
2022/06/02 00:00:13;;;;;;;2.10;2.00;;;18.20;36.00;;;;;;10549626;28;20702;-77
2022/06/02 00:05:21;;;;;;;2.80;2.17;;;18.10;35.80;;;;;;10557673;28;20254;-77
2022/06/02 00:10:31;;;;;;;2.10;2.00;;;18.00;35.20;;;;;;10552940;28;20702;-77
2022/06/02 00:15:40;;;;;;;2.70;2.50;;;18.00;35.40;;;;;;10549795;28;20235;-77
2022/06/02 00:20:48;;;;;;;2.40;2.30;;;17.90;35.60;;;;;;10545280;28;20235;-77
2022/06/02 00:25:59;;;;;;;2.00;1.90;;;17.90;35.30;;;;;;10553187;27;20223;-77
2022/06/02 00:31:08;;;;;;;2.50;2.30;;;17.80;35.40;;;;;;10548723;28;20727;-77
2022/06/02 00:36:18;;;;;;;2.40;2.30;;;17.80;35.40;;;;;;10558156;28;20284;-77
2022/06/02 00:41:26;;;;;;;4.60;2.80;;;17.60;35.60;;;;;;10558486;28;20275;-77
2022/06/02 00:46:55;;;;;;;5.53;2.80;;;17.40;35.50;;;;;;10552139;28;20731;-77
2022/06/02 00:52:15;;;;;;;3.20;2.87;;;17.20;35.70;;;;;;10547353;28;20269;-77
2022/06/02 00:57:35;;;;;;;3.80;2.90;;;17.00;36.30;;;;;;10560854;28;20221;-77
2022/06/02 01:02:46;;;;;;;2.83;2.63;;;16.80;36.80;;;;;;10550534;28;20238;-77
2022/06/02 01:08:01;;;;;;;2.87;2.67;;;16.70;37.00;;;;;;10552688;28;20235;-77
2022/06/02 01:13:25;;;;;;;2.90;2.63;;;16.60;37.30;;;;;;10547720;28;20246;-77
2022/06/02 01:18:39;;;;;;;5.13;2.47;;;16.50;37.30;;;;;;10547087;28;20577;-76
2022/06/02 01:24:03;;;;;;;3.00;2.70;;;16.50;37.70;;;;;;10550024;28;20346;-76
2022/06/02 01:29:23;;;;;;;2.63;2.47;;;16.50;38.20;;;;;;10535933;28;20232;-76
2022/06/02 01:34:43;;;;;;;2.73;2.53;;;16.50;37.40;;;;;;10552112;28;20245;-76
2022/06/02 01:40:04;;;;;;;4.67;2.70;;;16.60;37.40;;;;;;10556715;27;20235;-76
2022/06/02 01:45:15;;;;;;;2.90;2.23;;;16.50;37.20;;;;;;10565096;27;20592;-77
2022/06/02 01:50:32;;;;;;;2.50;2.40;;;16.40;37.10;;;;;;10557750;27;20219;-76
2022/06/02 01:56:04;;;;;;;2.70;2.23;;;16.40;37.60;;;;;;10559798;27;20717;-77
2022/06/02 02:01:16;;;;;;;2.97;2.77;;;16.40;37.30;;;;;;10556656;27;20223;-77
2022/06/02 02:06:31;;;;;;;2.83;2.63;;;16.40;37.30;;;;;;10557408;27;20230;-76
2022/06/02 02:11:53;;;;;;;3.23;2.90;;;16.30;37.50;;;;;;10556783;27;20270;-77
2022/06/02 02:17:19;;;;;;;2.93;2.73;;;16.30;37.50;;;;;;10555040;27;20219;-76
2022/06/02 02:22:37;;;;;;;3.20;2.90;;;16.30;37.50;;;;;;10559455;27;20235;-76
2022/06/02 02:28:06;;;;;;;2.73;2.53;;;16.30;37.90;;;;;;10553153;27;20234;-76
2022/06/02 02:33:21;;;;;;;4.13;3.03;;;16.20;37.40;;;;;;10555020;27;20277;-76
2022/06/02 02:38:40;;;;;;;2.67;2.47;;;16.10;37.80;;;;;;10556932;28;20703;-76
2022/06/02 02:43:51;;;;;;;3.37;2.90;;;16.10;37.80;;;;;;10559226;28;20225;-76
2022/06/02 02:49:01;;;;;;;3.00;2.80;;;16.10;37.50;;;;;;10556018;27;20877;-76
2022/06/02 02:54:11;;;;;;;2.90;2.70;;;16.00;37.70;;;;;;10549772;27;20640;-76
2022/06/02 02:59:20;;;;;;;3.43;2.73;;;16.00;37.90;;;;;;10561810;28;20599;-79
2022/06/02 03:04:35;;;;;;;2.37;2.27;;;16.00;37.80;;;;;;10557339;27;20233;-76
2022/06/02 03:09:43;;;;;;;2.83;2.63;;;15.90;38.20;;;;;;10555806;27;20226;-76
2022/06/02 03:15:11;;;;;;;2.70;2.50;;;15.80;38.20;;;;;;10559714;28;20227;-76
2022/06/02 03:20:19;;;;;;;3.23;2.90;;;15.80;38.00;;;;;;10549409;27;20220;-77
2022/06/02 03:25:31;;;;;;;4.37;2.37;;;15.90;38.20;;;;;;10555510;27;20235;-77
2022/06/02 03:30:46;;;;;;;2.73;2.53;;;15.90;38.30;;;;;;10554960;28;20227;-77
2022/06/02 03:36:01;;;;;;;3.23;2.57;;;16.00;38.40;;;;;;10564071;27;20725;-77
2022/06/02 03:41:23;;;;;;;2.90;2.70;;;16.00;38.10;;;;;;10550791;27;20233;-76
2022/06/02 03:46:51;;;;;;;3.33;2.90;;;15.90;38.20;;;;;;10557274;28;20610;-77
2022/06/02 03:52:08;;;;;;;3.40;3.10;;;15.90;38.30;;;;;;10553555;28;20223;-77
2022/06/02 03:57:36;;;;;;;3.03;2.73;;;15.90;38.70;;;;;;10544835;27;20932;-76
2022/06/02 04:02:44;;;;;;;3.60;2.67;;;15.80;38.60;;;;;;10556840;28;20285;-77
2022/06/02 04:07:56;;;;;;;4.53;3.40;;;15.80;38.30;;;;;;10554080;28;20324;-77
2022/06/02 04:18:49;;;;;;;3.63;3.37;;;15.90;39.60;;;;;;10532178;28;20576;-77
2022/06/02 04:24:22;;;;;;;3.50;3.20;;;16.00;39.70;;;;;;10522700;28;20222;-77
2022/06/02 04:29:41;;;;;;;3.50;3.30;;;16.00;40.00;;;;;;10506429;28;20581;-77
2022/06/02 04:34:52;;;;;;;3.40;3.10;;;16.00;40.00;;;;;;10522234;28;20235;-77
2022/06/02 04:40:00;;;;;;;3.77;3.10;;;16.10;39.80;;;;;;10519859;28;20311;-75
2022/06/02 04:45:15;;;;;;;3.10;2.90;;;16.20;39.50;;;;;;10511796;28;20219;-74
2022/06/02 04:50:25;;;;;;;3.70;3.50;;;16.20;39.70;;;;;;10502384;28;20229;-74
2022/06/02 04:55:36;;;;;;;3.40;3.20;;;16.30;39.60;;;;;;10516898;28;20230;-74
2022/06/02 05:00:51;;;;;;;3.50;3.20;;;16.30;39.70;;;;;;10538181;28;20223;-78
2022/06/02 05:06:05;;;;;;;3.30;3.10;;;16.30;40.30;;;;;;10540915;28;20834;-75
2022/06/02 05:11:21;;;;;;;3.97;3.07;;;16.40;39.80;;;;;;10525218;28;20221;-75
2022/06/02 05:16:39;;;;;;;4.10;3.03;;;16.40;39.50;;;;;;10551421;27;20687;-75
2022/06/02 05:22:15;;;;;;;2.93;2.77;;;16.50;39.50;;;;;;10534007;27;20305;-75
2022/06/02 05:28:06;;;;;;;3.57;3.27;;;16.60;39.60;;;;;;10556936;28;20299;-75
2022/06/02 05:33:44;;;;;;;3.60;3.30;;;16.80;39.90;;;;;;10511404;28;20218;-76
2022/06/02 05:39:03;;;;;;;3.37;3.17;;;16.90;39.60;;;;;;10555410;27;20215;-76
2022/06/02 05:44:15;;;;;;;4.20;3.90;;;17.10;39.40;;;;;;10538662;28;20447;-75
2022/06/02 05:49:27;;;;;;;3.67;3.47;;;17.10;39.10;;;;;;10556575;28;20219;-75
2022/06/02 05:54:41;;;;;;;4.10;3.80;;;17.20;39.10;;;;;;10560185;28;20269;-75
2022/06/02 06:00:00;;;;;;;4.60;4.20;;;17.30;39.40;;;;;;10557710;27;20731;-75
2022/06/02 06:05:13;;;;;;;5.27;4.90;;;17.40;39.00;;;;;;10519438;28;20223;-75
2022/06/02 06:10:22;;;;;;;4.00;3.70;;;17.50;39.20;;;;;;10509211;28;20220;-74
2022/06/02 06:15:38;;;;;;;4.00;3.70;;;17.60;38.90;;;;;;10520581;28;20238;-75
2022/06/02 06:20:53;;;;;;;4.50;4.10;;;17.70;38.70;;;;;;10520691;28;20234;-75
2022/06/02 06:26:18;;;;;;;4.73;4.40;;;17.80;38.60;;;;;;10520582;28;20234;-76
2022/06/02 06:31:30;;;;;;;4.17;3.87;;;17.90;38.70;;;;;;10518378;28;20230;-75
2022/06/02 06:36:56;;;;;;;4.87;4.47;;;18.00;38.50;;;;;;10527251;27;20212;-75
2022/06/02 06:42:21;;;;;;;4.77;4.37;;;18.10;38.70;;;;;;10558709;27;20219;-76
2022/06/02 06:47:31;;;;;;;6.07;5.00;;;18.20;38.90;;;;;;10535533;28;20223;-76
2022/06/02 06:53:15;;;;;;;5.10;4.60;;;18.30;38.60;;;;;;10549334;27;20235;-75
2022/06/02 06:58:32;;;;;;;5.37;4.77;;;18.50;38.90;;;;;;10536493;28;20230;-76
2022/06/02 07:03:46;;;;;;;5.50;5.10;;;18.60;38.90;;;;;;10547879;27;20241;-76
2022/06/02 07:08:56;;;;;;;4.93;4.47;;;18.80;38.90;;;;;;10541614;27;21183;-75
2022/06/02 07:14:08;;;;;;;4.87;4.47;;;19.00;38.70;;;;;;10545138;27;20231;-76
2022/06/02 07:19:19;;;;;;;4.90;4.50;;;19.20;38.60;;;;;;10549954;27;20301;-76
2022/06/02 07:24:34;;;;;;;4.97;4.57;;;19.30;38.40;;;;;;10547196;28;20242;-77
2022/06/02 07:29:47;;;;;;;5.70;5.30;;;19.50;38.20;;;;;;10550754;28;20245;-75
2022/06/02 07:35:13;;;;;;;4.67;4.30;;;19.60;38.00;;;;;;10554222;27;20753;-76
2022/06/02 07:40:32;;;;;;;5.03;4.53;;;19.80;37.70;;;;;;10546884;28;20610;-76
2022/06/02 07:45:43;;;;;;;4.57;4.17;;;19.90;37.30;;;;;;10552950;28;20237;-77
2022/06/02 07:50:56;;;;;;;4.50;4.17;;;20.10;38.00;;;;;;10549311;28;20231;-77
2022/06/02 07:56:05;;;;;;;4.83;4.17;;;20.20;37.20;;;;;;10552097;28;20224;-76
2022/06/02 08:01:14;;;;;;;4.40;4.00;;;20.50;37.30;;;;;;10554908;27;20847;-76
2022/06/02 08:06:29;;;;;;;3.80;3.40;;;20.70;37.10;;;;;;10550913;28;20226;-77
2022/06/02 08:11:52;;;;;;;3.77;3.40;;;21.00;36.70;;;;;;10555662;28;20750;-76
2022/06/02 08:17:00;;;;;;;3.67;3.30;;;21.20;35.70;;;;;;10549867;27;20226;-76
2022/06/02 08:22:07;;;;;;;3.27;2.70;;;21.40;36.00;;;;;;10543808;27;20221;-76
2022/06/02 08:27:43;;;;;;;3.53;3.23;;;21.60;35.60;;;;;;10549288;28;20230;-78
2022/06/02 08:33:09;;;;;;;3.20;3.00;;;21.80;35.10;;;;;;10536102;28;20227;-77
2022/06/02 08:38:28;;;;;;;3.23;3.03;;;22.10;34.60;;;;;;10533973;28;20237;-75
2022/06/02 08:43:49;;;;;;;3.27;3.07;;;22.30;34.00;;;;;;10548047;28;20238;-75
2022/06/02 08:49:28;;;;;;;3.50;3.17;;;22.50;33.80;;;;;;10551049;28;20698;-75
2022/06/02 08:55:10;;;;;;;3.17;2.97;;;22.80;33.10;;;;;;10561810;28;20233;-77
2022/06/02 09:00:49;;;;;;;2.90;2.70;;;23.00;33.00;;;;;;10529753;27;20215;-77
2022/06/02 09:06:42;;;;;;;3.40;3.10;;;23.20;32.10;;;;;;10543140;27;20226;-75
2022/06/02 09:12:05;;;;;;;2.97;2.77;;;23.30;33.30;;;;;;10551885;28;20242;-75
2022/06/02 09:17:27;;;;;;;2.97;2.77;;;23.50;32.20;;;;;;10538911;27;20224;-75
2022/06/02 09:22:55;;;;;;;2.67;2.50;;;23.70;32.40;;;;;;10548372;27;20585;-75
2022/06/02 09:28:32;;;;;;;2.80;2.60;;;23.90;32.40;;;;;;10550477;28;21212;-76
2022/06/02 09:34:09;;;;;;;4.97;4.40;;;24.10;31.70;;;;;;10551114;28;20226;-75
2022/06/02 09:39:35;;;;;;;3.03;2.73;;;24.30;32.10;;;;;;10514784;27;20250;-74
2022/06/02 09:44:51;;;;;;;3.20;3.00;;;24.50;31.50;;;;;;10519578;28;20235;-75
2022/06/02 09:50:30;;;;;;;3.17;2.97;;;24.80;30.80;;;;;;10517147;28;20239;-75
2022/06/02 09:55:44;;;;;;;3.37;3.17;;;25.00;31.50;;;;;;10559479;27;20712;-78
2022/06/02 10:01:11;;;;;;;3.43;3.23;;;25.30;30.00;;;;;;10554660;28;20271;-75
2022/06/02 10:06:30;;;;;;;3.77;3.57;;;25.50;30.20;;;;;;10553104;27;20219;-75
2022/06/02 10:11:47;;;;;;;2.97;2.73;;;25.70;29.30;;;;;;10552417;27;20351;-78
2022/06/02 10:17:35;;;;;;;3.40;3.10;;;25.80;27.90;;;;;;10554451;28;20230;-76
2022/06/02 10:22:50;;;;;;;2.40;2.30;;;25.90;29.20;;;;;;10552170;27;20718;-76
2022/06/02 10:28:38;;;;;;;2.60;2.40;;;25.90;29.00;;;;;;10537531;27;20232;-76
2022/06/02 10:34:26;;;;;;;2.23;2.13;;;25.90;29.10;;;;;;10514417;27;20223;-76
2022/06/02 10:39:53;;;;;;;229.73;54.83;;;26.00;28.70;;;;;;10557011;28;20218;-76
2022/06/02 10:45:29;;;;;;;138.67;41.60;;;26.10;27.90;;;;;;10556772;27;20223;-75
2022/06/02 10:51:08;;;;;;;138.27;95.57;;;26.10;28.40;;;;;;10546569;28;20238;-75
2022/06/02 10:56:53;;;;;;;21.13;15.60;;;26.20;27.90;;;;;;10546955;28;20233;-75
2022/06/02 11:02:32;;;;;;;8.73;6.53;;;26.30;27.90;;;;;;10540889;27;20229;-75
2022/06/02 11:08:19;;;;;;;3.97;3.67;;;26.40;27.20;;;;;;10508292;28;20574;-74
2022/06/02 11:13:50;;;;;;;3.20;3.00;;;26.50;25.80;;;;;;10545323;27;20230;-75
2022/06/02 11:19:40;;;;;;;2.70;2.60;;;26.50;26.30;;;;;;10545825;28;20218;-76
2022/06/02 11:25:20;;;;;;;2.30;2.20;;;26.50;26.30;;;;;;10508994;28;20700;-77
2022/06/02 11:30:47;;;;;;;2.70;2.50;;;26.40;25.50;;;;;;10487127;28;20230;-75
2022/06/02 11:36:26;;;;;;;2.60;2.40;;;26.20;25.80;;;;;;10545749;27;20291;-79
2022/06/02 11:41:39;;;;;;;2.43;2.20;;;26.20;26.80;;;;;;10540868;28;20231;-80
2022/06/02 11:47:23;;;;;;;2.40;2.20;;;26.20;25.60;;;;;;10538859;27;20230;-74
2022/06/02 11:53:00;;;;;;;2.20;2.10;;;26.20;26.50;;;;;;10526399;28;20238;-74
2022/06/02 11:58:40;;;;;;;2.03;1.93;;;26.30;25.50;;;;;;10526844;28;20225;-74
2022/06/02 12:04:14;;;;;;;2.23;2.03;;;26.40;26.10;;;;;;10503715;27;20223;-76
2022/06/02 12:09:44;;;;;;;2.50;2.30;;;26.50;25.80;;;;;;10526390;28;20998;-76
2022/06/02 12:15:18;;;;;;;2.20;2.10;;;26.60;25.50;;;;;;10530942;27;20238;-77
2022/06/02 12:20:45;;;;;;;2.47;2.37;;;26.70;26.10;;;;;;10526460;28;20233;-75
2022/06/02 12:26:02;;;;;;;5.47;5.17;;;26.80;24.60;;;;;;10528394;27;20569;-74
2022/06/02 12:31:43;;;;;;;2.30;2.10;;;26.90;24.60;;;;;;10517565;28;20589;-75
2022/06/02 12:37:06;;;;;;;2.30;2.20;;;26.80;25.00;;;;;;10532247;28;20226;-75
2022/06/02 12:42:50;;;;;;;2.47;2.27;;;26.90;24.20;;;;;;10488774;28;20224;-75
2022/06/02 12:48:26;;;;;;;2.50;2.10;;;27.00;25.10;;;;;;10486021;28;20727;-75
2022/06/02 12:54:00;;;;;;;2.30;2.20;;;27.00;24.60;;;;;;10477944;28;20227;-75
2022/06/02 12:59:38;;;;;;;2.60;2.40;;;27.00;24.30;;;;;;10481084;28;20216;-74
2022/06/02 13:05:22;;;;;;;3.30;2.20;;;27.00;24.20;;;;;;10529083;28;20646;-74
2022/06/02 13:10:42;;;;;;;2.40;2.03;;;26.90;23.90;;;;;;10527918;28;20320;-75
2022/06/02 13:16:29;;;;;;;2.23;2.03;;;26.90;23.60;;;;;;10532997;27;21881;-75
2022/06/02 13:21:54;;;;;;;2.13;1.93;;;26.90;24.40;;;;;;10501122;28;20235;-75
2022/06/02 13:27:30;;;;;;;2.40;2.20;;;27.00;22.20;;;;;;10488679;28;20224;-76
2022/06/02 13:33:06;;;;;;;2.20;2.10;;;27.10;22.80;;;;;;10530991;27;20235;-75
2022/06/02 13:39:07;;;;;;;2.23;2.13;;;27.10;22.70;;;;;;10546134;27;20219;-76
2022/06/02 13:44:49;;;;;;;2.20;2.10;;;27.20;23.90;;;;;;10408974;28;20234;-76
2022/06/02 13:50:35;;;;;;;2.50;2.30;;;27.30;23.80;;;;;;10531184;28;20222;-76
2022/06/02 14:01:42;;;;;;;2.00;1.90;;;27.60;22.60;;;;;;10551013;27;20216;-77
2022/06/02 14:06:51;;;;;;;2.23;2.10;;;27.70;22.20;;;;;;10551438;27;20234;-75
2022/06/02 14:12:09;;;;;;;2.40;2.27;;;27.70;21.80;;;;;;10543354;28;20745;-74
2022/06/02 14:17:31;;;;;;;2.20;2.10;;;27.60;21.20;;;;;;10545597;28;20227;-75
2022/06/02 14:22:49;;;;;;;1.90;1.80;;;27.50;21.80;;;;;;10539739;27;20220;-76
2022/06/02 14:28:14;;;;;;;1.80;1.70;;;27.50;21.50;;;;;;10535852;27;20224;-76
2022/06/02 14:33:27;;;;;;;2.83;2.23;;;27.50;21.30;;;;;;10539229;27;20316;-75
2022/06/02 14:38:46;;;;;;;1.80;1.70;;;27.50;21.70;;;;;;10535140;28;20219;-75
2022/06/02 14:44:22;;;;;;;1.80;1.70;;;27.60;21.20;;;;;;10542349;27;20255;-75
2022/06/02 14:49:41;;;;;;;1.97;1.87;;;27.70;21.80;;;;;;10545272;28;20238;-75
2022/06/02 14:54:57;;;;;;;1.90;1.80;;;27.80;20.40;;;;;;10534965;27;21175;-75
2022/06/02 15:00:20;;;;;;;1.80;1.70;;;27.90;20.50;;;;;;10544648;27;20709;-75
2022/06/02 15:05:33;;;;;;;2.50;2.13;;;28.00;21.60;;;;;;10532072;27;20237;-74
2022/06/02 15:10:45;;;;;;;2.10;2.00;;;28.00;20.60;;;;;;10546806;28;20611;-75
2022/06/02 15:16:15;;;;;;;2.13;2.03;;;28.00;20.80;;;;;;10543145;27;20219;-75
2022/06/02 15:21:27;;;;;;;2.27;1.80;;;28.10;21.10;;;;;;10488840;27;20218;-75
2022/06/02 15:27:13;;;;;;;2.60;2.40;;;28.20;20.70;;;;;;10539548;27;20219;-75
2022/06/02 15:33:07;;;;;;;2.97;2.77;;;28.30;21.20;;;;;;10544496;28;20234;-75
2022/06/02 15:38:41;;;;;;;2.00;1.90;;;28.40;21.70;;;;;;10539548;28;20225;-75
2022/06/02 15:44:20;;;;;;;2.30;2.20;;;28.40;20.80;;;;;;10539631;28;20231;-75
2022/06/02 15:49:49;;;;;;;5.60;5.20;;;28.30;21.00;;;;;;10525461;28;20731;-75
2022/06/02 15:55:47;;;;;;;1.90;1.80;;;28.30;20.50;;;;;;10538721;28;20234;-75
2022/06/02 16:01:24;;;;;;;2.03;1.83;;;28.30;21.10;;;;;;10534619;28;20219;-75
2022/06/02 16:06:57;;;;;;;2.67;2.47;;;28.20;20.20;;;;;;10495668;28;20224;-77
2022/06/02 16:12:37;;;;;;;2.10;2.00;;;28.20;20.20;;;;;;10500948;28;20220;-77
2022/06/02 16:18:16;;;;;;;2.20;2.10;;;28.10;20.20;;;;;;10495917;28;20222;-76
2022/06/02 16:23:55;;;;;;;2.20;2.00;;;28.20;20.20;;;;;;10534080;28;20226;-77
2022/06/02 16:29:45;;;;;;;1.90;1.80;;;28.10;20.10;;;;;;10543508;28;21811;-77
2022/06/02 16:34:55;;;;;;;2.00;1.80;;;28.10;20.40;;;;;;10550640;28;20751;-76
2022/06/02 16:40:15;;;;;;;1.90;1.80;;;28.10;20.10;;;;;;10548273;28;20234;-76
2022/06/02 16:45:33;;;;;;;5.23;4.57;;;28.00;20.10;;;;;;10524729;28;20929;-76
2022/06/02 16:50:58;;;;;;;3.27;2.83;;;28.00;20.10;;;;;;10543653;28;20226;-76
2022/06/02 16:56:04;;;;;;;2.93;2.73;;;28.00;20.10;;;;;;10508737;28;20227;-76
2022/06/02 17:01:17;;;;;;;5.97;4.80;;;28.00;20.20;;;;;;10511756;28;20237;-76
2022/06/02 17:06:35;;;;;;;4.33;4.03;;;28.00;20.20;;;;;;10541670;28;20695;-76
2022/06/02 17:11:46;;;;;;;3.30;3.00;;;28.00;20.40;;;;;;10549551;28;20223;-76
2022/06/02 17:17:15;;;;;;;2.90;2.70;;;27.90;20.30;;;;;;10556344;28;20227;-76
2022/06/02 17:22:49;;;;;;;3.03;2.27;;;27.90;20.70;;;;;;10554886;27;20723;-76
2022/06/02 17:28:12;;;;;;;4.50;2.10;;;27.90;20.80;;;;;;10551522;27;20641;-76
2022/06/02 17:33:30;;;;;;;2.00;1.90;;;27.90;20.70;;;;;;10510621;28;20232;-76
2022/06/02 17:39:05;;;;;;;2.40;2.00;;;27.80;21.20;;;;;;10514732;28;22979;-78
2022/06/02 17:44:32;;;;;;;1.63;1.53;;;27.80;21.60;;;;;;10541729;28;20231;-77
2022/06/02 17:49:51;;;;;;;1.80;1.70;;;27.70;21.30;;;;;;10552651;27;20319;-77
2022/06/02 17:55:24;;;;;;;2.00;1.90;;;27.60;21.50;;;;;;10552123;27;20308;-77
2022/06/02 18:00:35;;;;;;;2.13;2.03;;;27.50;21.70;;;;;;10509394;28;20231;-77
2022/06/02 18:05:52;;;;;;;2.47;1.90;;;27.40;20.60;;;;;;10552282;28;20227;-77
2022/06/02 18:11:10;;;;;;;2.47;2.00;;;27.30;20.60;;;;;;10561518;28;20232;-77
2022/06/02 18:16:48;;;;;;;1.80;1.70;;;27.20;20.80;;;;;;10556085;28;20223;-77
2022/06/02 18:22:14;;;;;;;2.10;2.00;;;27.10;21.70;;;;;;10558137;28;20229;-77
2022/06/02 18:27:55;;;;;;;1.90;1.80;;;27.00;21.20;;;;;;10554593;28;20303;-77
2022/06/02 18:33:42;;;;;;;1.87;1.77;;;26.90;21.40;;;;;;10549466;28;20230;-77
2022/06/02 18:39:12;;;;;;;2.20;2.10;;;26.60;21.80;;;;;;10557689;28;20302;-77
2022/06/02 18:45:00;;;;;;;1.97;1.83;;;26.60;22.20;;;;;;10554656;28;20233;-77
2022/06/02 18:50:36;;;;;;;2.00;1.90;;;26.50;22.70;;;;;;10519345;28;20218;-77
2022/06/02 18:56:24;;;;;;;2.90;2.23;;;26.50;23.00;;;;;;10523547;28;20231;-76
2022/06/02 19:02:08;;;;;;;2.33;2.10;;;26.50;23.20;;;;;;10547770;27;20788;-76
2022/06/02 19:13:56;;;;;;;2.10;2.00;;;26.30;23.60;;;;;;10490898;28;20321;-76
2022/06/02 19:19:15;;;;;;;2.30;2.20;;;26.20;23.40;;;;;;10537804;27;20225;-75
2022/06/02 19:24:45;;;;;;;2.43;2.00;;;26.10;24.60;;;;;;10543519;28;20306;-76
2022/06/02 19:30:17;;;;;;;2.40;2.30;;;26.00;24.40;;;;;;10544235;28;20226;-76
2022/06/02 19:35:22;;;;;;;2.43;2.23;;;25.90;24.70;;;;;;10542941;28;20677;-75
2022/06/02 19:40:33;;;;;;;2.10;2.00;;;25.80;24.50;;;;;;10542620;27;20684;-76
2022/06/02 19:45:43;;;;;;;2.40;2.20;;;25.70;24.80;;;;;;10542505;28;20809;-75
2022/06/02 19:50:51;;;;;;;2.50;2.27;;;25.60;25.30;;;;;;10541660;27;20223;-75
2022/06/02 19:55:59;;;;;;;2.90;2.60;;;25.50;25.50;;;;;;10541698;28;20227;-75
2022/06/02 20:01:12;;;;;;;2.83;2.27;;;25.40;25.50;;;;;;10539667;28;20222;-76
2022/06/02 20:06:21;;;;;;;2.60;2.40;;;25.30;25.50;;;;;;10542764;28;20316;-75
2022/06/02 20:11:30;;;;;;;2.40;2.30;;;25.20;25.30;;;;;;10539610;28;20306;-75
2022/06/02 20:16:43;;;;;;;3.13;2.30;;;25.00;25.80;;;;;;10542651;27;20626;-75
2022/06/02 20:21:57;;;;;;;2.23;2.10;;;24.90;25.70;;;;;;10544924;28;20347;-74
2022/06/02 20:27:09;;;;;;;2.33;2.20;;;24.70;25.70;;;;;;10541150;28;20223;-75
2022/06/02 20:32:18;;;;;;;2.30;2.20;;;24.60;25.90;;;;;;10539265;28;20223;-74
2022/06/02 20:37:49;;;;;;;2.87;2.40;;;24.50;26.00;;;;;;10536116;28;20231;-73
2022/06/02 20:43:21;;;;;;;2.63;2.37;;;24.40;25.80;;;;;;10536683;27;20765;-73
2022/06/02 20:48:38;;;;;;;2.83;2.63;;;24.30;26.00;;;;;;10568856;27;20226;-74
2022/06/02 20:53:43;;;;;;;2.97;2.67;;;24.30;26.50;;;;;;10566877;27;20226;-74
2022/06/02 20:58:51;;;;;;;3.13;2.93;;;24.20;26.20;;;;;;10571096;27;20318;-75
2022/06/02 21:04:20;;;;;;;3.20;3.00;;;24.10;26.30;;;;;;10570870;27;20218;-77
2022/06/02 21:09:51;;;;;;;3.27;2.50;;;24.00;26.20;;;;;;10530028;27;21249;-74
2022/06/02 21:14:59;;;;;;;3.10;2.80;;;23.90;26.40;;;;;;10518463;27;20723;-73
2022/06/02 21:20:17;;;;;;;2.73;2.53;;;23.80;26.60;;;;;;10532116;27;20214;-74
2022/06/02 21:25:30;;;;;;;3.23;2.93;;;23.50;26.70;;;;;;10557163;27;20231;-74
2022/06/02 21:30:36;;;;;;;2.90;2.70;;;23.40;26.90;;;;;;10568399;27;20231;-73
2022/06/02 21:35:46;;;;;;;3.17;2.70;;;23.30;26.80;;;;;;10565301;27;20258;-74
2022/06/02 21:40:51;;;;;;;3.00;2.67;;;23.20;27.10;;;;;;10568259;27;20234;-73
2022/06/02 21:46:02;;;;;;;2.60;2.40;;;23.20;27.00;;;;;;10566768;27;20227;-73
2022/06/02 21:51:42;;;;;;;2.80;2.60;;;23.10;27.40;;;;;;10565311;27;20254;-74
2022/06/02 21:56:51;;;;;;;3.50;3.23;;;23.00;27.00;;;;;;10558437;27;20488;-73
2022/06/02 22:02:02;;;;;;;3.40;3.20;;;22.90;27.30;;;;;;10554710;27;20227;-73
2022/06/02 22:07:19;;;;;;;3.30;3.00;;;22.80;27.20;;;;;;10519482;28;20223;-73
2022/06/02 22:12:28;;;;;;;2.80;2.60;;;22.70;27.10;;;;;;10543490;28;21443;-73
2022/06/02 22:17:36;;;;;;;2.60;2.50;;;22.50;27.00;;;;;;10553828;27;20743;-73
2022/06/02 22:22:45;;;;;;;2.40;2.30;;;22.40;26.90;;;;;;10552752;27;20315;-73
2022/06/02 22:27:59;;;;;;;2.83;2.50;;;22.30;27.30;;;;;;10542452;28;20298;-74
2022/06/02 22:33:43;;;;;;;2.93;2.73;;;22.20;27.50;;;;;;10511445;28;20671;-73
2022/06/02 22:39:10;;;;;;;2.73;2.50;;;22.10;27.10;;;;;;10514744;28;20235;-73
2022/06/02 22:44:42;;;;;;;3.70;2.33;;;22.00;27.60;;;;;;10561346;27;20225;-74
2022/06/02 22:50:13;;;;;;;2.90;2.70;;;21.90;27.80;;;;;;10541723;28;20576;-73
2022/06/02 22:55:49;;;;;;;2.80;2.60;;;21.80;27.80;;;;;;10524843;28;20235;-73
2022/06/02 23:01:17;;;;;;;2.83;2.63;;;21.70;27.80;;;;;;10521412;28;20375;-73
2022/06/02 23:06:48;;;;;;;2.23;2.13;;;21.50;28.10;;;;;;10485028;28;20219;-73
2022/06/02 23:12:39;;;;;;;2.80;2.60;;;21.40;27.80;;;;;;10526086;28;20242;-73
2022/06/02 23:18:13;;;;;;;2.90;2.70;;;21.30;27.90;;;;;;10528586;28;20227;-72
2022/06/02 23:23:57;;;;;;;2.73;2.50;;;21.20;28.20;;;;;;10557380;28;20227;-73
2022/06/02 23:29:12;;;;;;;2.40;2.30;;;21.10;28.00;;;;;;10553716;27;21111;-73
2022/06/02 23:34:35;;;;;;;3.40;2.80;;;21.00;28.60;;;;;;10554154;27;20233;-73
2022/06/02 23:39:53;;;;;;;2.97;2.77;;;20.90;28.70;;;;;;10553177;27;20230;-73
2022/06/02 23:45:33;;;;;;;2.73;2.53;;;20.80;29.00;;;;;;10545200;28;20236;-73
2022/06/02 23:51:02;;;;;;;2.50;2.40;;;20.70;28.70;;;;;;10529958;28;20223;-73
2022/06/02 23:56:44;;;;;;;3.47;3.23;;;20.60;29.00;;;;;;10555621;28;20610;-72
